Time,TemperatureF,DewpointF,PressureIn,WindDirection,WindDirectionDegrees,WindSpeedMPH,WindSpeedGustMPH,Humidity,HourlyPrecipIn,Conditions,Clouds,dailyrainin,SolarRadiationWatts/m^2,SoftwareType,DateUTC
2013-03-10 00:00:00,32.1,30.3,30.33,NNE,14,7.0,8.0,93,0.00,,---,0.02,0.00,VWS V14.01,2013-03-10 05:00:00,
2013-03-10 00:01:00,32.1,30.3,30.33,NNE,15,3.0,8.0,93,0.00,,---,0.02,0.00,VWS V14.01,2013-03-10 05:01:00,
2013-03-10 00:06:00,32.2,30.4,30.33,North,5,5.0,9.0,93,0.00,,---,0.00,0.00,VWS V14.01,2013-03-10 05:06:00,
2013-03-10 00:11:00,32.1,30.3,30.33,North,355,3.0,9.0,93,0.00,,---,0.00,0.00,VWS V14.01,2013-03-10 05:11:00,
2013-03-10 00:15:00,32.1,30.3,30.34,NW,317,5.0,9.0,93,0.00,,,0.00,0.00,VWS V14.01,2013-03-10 05:15:00,
2013-03-10 00:16:00,32.1,30.3,30.34,North,9,4.0,9.0,93,0.00,,---,0.00,0.00,VWS V14.01,2013-03-10 05:16:00,
2013-03-10 00:21:00,32.2,30.4,30.34,North,11,3.0,7.0,93,0.00,,---,0.00,0.00,VWS V14.01,2013-03-10 05:21:00,
2013-03-10 00:26:00,32.3,30.5,30.34,North,349,6.0,7.0,93,0.00,,---,0.00,0.00,VWS V14.01,2013-03-10 05:26:00,
2013-03-10 00:30:00,32.4,30.6,30.34,NNW,340,4.0,8.0,93,0.00,,,0.00,0.00,VWS V14.01,2013-03-10 05:30:00,
2013-03-10 00:31:00,32.3,30.5,30.34,North,355,7.0,8.0,93,0.00,,---,0.00,0.00,VWS V14.01,2013-03-10 05:31:00,
2013-03-10 00:36:00,32.5,30.7,30.35,NNW,344,4.0,8.0,93,0.00,,---,0.00,0.00,VWS V14.01,2013-03-10 05:36:00,
2013-03-10 00:41:00,32.5,30.7,30.35,NNW,344,3.0,8.0,93,0.00,,---,0.00,0.00,VWS V14.01,2013-03-10 05:41:00,
2013-03-10 00:45:00,32.5,30.7,30.35,NNW,333,2.0,8.0,93,0.00,,,0.00,0.00,VWS V14.01,2013-03-10 05:45:00,
2013-03-10 00:46:00,32.5,30.7,30.35,North,5,3.0,8.0,93,0.00,,---,0.00,0.00,VWS V14.01,2013-03-10 05:46:00,
2013-03-10 00:51:00,32.4,30.3,30.35,NW,323,4.0,5.0,92,0.00,,---,0.00,0.00,VWS V14.01,2013-03-10 05:51:00,
2013-03-10 00:56:00,32.3,30.2,30.35,NNW,340,3.0,6.0,92,0.00,,---,0.00,0.00,VWS V14.01,2013-03-10 05:56:00,
2013-03-10 00:58:00,33.4,31.3,30.35,NW,316,4.0,8.0,92,0.00,,---,0.00,0.00,VWS V14.01,2013-03-10 05:58:00,
2013-03-10 00:59:00,33.5,31.4,30.35,NW,322,4.0,8.0,92,0.00,,---,0.00,0.00,VWS V14.01,2013-03-10 05:59:00,
2013-03-10 01:00:00,32.0,30.2,30.35,NNW,338,5.0,6.0,93,0.00,,,0.00,0.00,VWS V14.01,2013-03-10 06:00:00,
2013-03-10 01:01:00,32.0,29.9,30.35,NW,322,5.0,6.0,92,0.00,,---,0.00,0.00,VWS V14.01,2013-03-10 06:01:00,
2013-03-10 01:06:00,31.9,30.1,30.35,North,349,4.0,6.0,93,0.00,,---,0.00,0.00,VWS V14.01,2013-03-10 06:06:00,
2013-03-10 01:11:00,31.9,30.1,30.35,NNW,331,4.0,6.0,93,0.00,,---,0.00,0.00,VWS V14.01,2013-03-10 06:11:00,
2013-03-10 01:15:00,31.9,30.1,30.35,NNW,340,4.0,6.0,93,0.00,,,0.00,0.00,VWS V14.01,2013-03-10 06:15:00,
2013-03-10 01:16:00,32.0,30.2,30.35,NNW,342,5.0,6.0,93,0.00,,---,0.00,0.00,VWS V14.01,2013-03-10 06:16:00,
2013-03-10 01:21:00,32.1,30.3,30.35,NNW,336,5.0,7.0,93,0.00,,---,0.00,0.00,VWS V14.01,2013-03-10 06:21:00,
2013-03-10 01:26:00,32.3,30.5,30.35,NNW,331,4.0,7.0,93,0.00,,---,0.00,0.00,VWS V14.01,2013-03-10 06:26:00,
2013-03-10 01:30:00,32.4,30.6,30.35,NNW,344,4.0,7.0,93,0.00,,,0.00,0.00,VWS V14.01,2013-03-10 06:30:00,
2013-03-10 01:31:00,32.4,30.6,30.35,NNW,340,3.0,7.0,93,0.00,,---,0.00,0.00,VWS V14.01,2013-03-10 06:31:00,
2013-03-10 01:36:00,32.5,30.7,30.35,North,360,3.0,6.0,93,0.00,,---,0.00,0.00,VWS V14.01,2013-03-10 06:36:00,
2013-03-10 01:41:00,32.7,30.9,30.35,NW,320,5.0,9.0,93,0.00,,---,0.00,0.00,VWS V14.01,2013-03-10 06:41:00,
2013-03-10 01:45:00,32.8,31.0,30.35,NW,317,1.0,9.0,93,0.00,,,0.00,0.00,VWS V14.01,2013-03-10 06:45:00,
2013-03-10 01:46:00,32.8,31.0,30.35,NW,317,2.0,9.0,93,0.00,,---,0.00,0.00,VWS V14.01,2013-03-10 06:46:00,
2013-03-10 01:51:00,33.0,31.2,30.35,North,5,7.0,7.0,93,0.00,,---,0.00,0.00,VWS V14.01,2013-03-10 06:51:00,
2013-03-10 01:56:00,33.4,31.6,30.35,NNW,331,4.0,8.0,93,0.00,,---,0.00,0.00,VWS V14.01,2013-03-10 06:56:00,
2013-03-10 03:01:00,33.5,31.4,30.35,NW,321,3.0,8.0,92,0.00,,---,0.00,0.00,VWS V14.01,2013-03-10 07:01:00,
2013-03-10 03:06:00,33.4,31.3,30.36,NW,317,4.0,5.0,92,0.00,,---,0.00,0.00,VWS V14.01,2013-03-10 07:06:00,
2013-03-10 03:11:00,33.3,31.2,30.35,NW,304,2.0,5.0,92,0.00,,---,0.00,0.00,VWS V14.01,2013-03-10 07:11:00,
2013-03-10 03:16:00,33.2,31.1,30.35,NW,324,2.0,5.0,92,0.00,,---,0.00,0.00,VWS V14.01,2013-03-10 07:16:00,
2013-03-10 03:21:00,33.2,31.1,30.35,NW,321,4.0,6.0,92,0.00,,---,0.00,0.00,VWS V14.01,2013-03-10 07:21:00,
2013-03-10 03:26:00,33.1,31.0,30.35,NNW,334,5.0,6.0,92,0.00,,---,0.00,0.00,VWS V14.01,2013-03-10 07:26:00,
2013-03-10 03:31:00,33.1,31.0,30.35,NNW,334,4.0,6.0,92,0.00,,---,0.00,0.00,VWS V14.01,2013-03-10 07:31:00,
2013-03-10 03:36:00,33.2,31.1,30.35,NW,321,4.0,7.0,92,0.00,,---,0.00,0.00,VWS V14.01,2013-03-10 07:36:00,
2013-03-10 03:41:00,33.2,31.1,30.35,NNW,346,2.0,7.0,92,0.00,,---,0.00,0.00,VWS V14.01,2013-03-10 07:41:00,
2013-03-10 03:46:00,33.1,31.0,30.35,NNW,333,2.0,7.0,92,0.00,,---,0.00,0.00,VWS V14.01,2013-03-10 07:46:00,
2013-03-10 03:51:00,33.2,31.1,30.35,NNW,343,4.0,6.0,92,0.00,,---,0.00,0.00,VWS V14.01,2013-03-10 07:51:00,
2013-03-10 03:56:00,33.3,31.2,30.35,NW,315,5.0,6.0,92,0.00,,---,0.00,0.00,VWS V14.01,2013-03-10 07:56:00,
2013-03-10 04:00:00,33.5,31.4,30.35,NW,321,4.0,8.0,92,0.00,,,0.00,0.00,VWS V14.01,2013-03-10 08:00:00,
2013-03-10 04:01:00,33.5,31.4,30.35,NW,312,2.0,6.0,92,0.00,,---,0.00,0.00,VWS V14.01,2013-03-10 08:01:00,
2013-03-10 04:06:00,33.6,31.3,30.35,NW,318,6.0,6.0,91,0.00,,---,0.00,0.00,VWS V14.01,2013-03-10 08:06:00,
2013-03-10 04:11:00,33.5,31.2,30.35,NW,315,4.0,6.0,91,0.00,,---,0.00,0.00,VWS V14.01,2013-03-10 08:11:00,
2013-03-10 04:16:00,33.5,31.2,30.35,NW,320,4.0,6.0,91,0.00,,---,0.00,0.00,VWS V14.01,2013-03-10 08:16:00,
2013-03-10 04:21:00,33.3,31.0,30.36,NW,318,5.0,7.0,91,0.00,,---,0.00,0.00,VWS V14.01,2013-03-10 08:21:00,
2013-03-10 04:26:00,33.2,31.1,30.36,NW,318,4.0,7.0,92,0.00,,---,0.00,0.00,VWS V14.01,2013-03-10 08:26:00,
2013-03-10 04:30:00,33.1,31.0,30.35,NNW,334,4.0,6.0,92,0.00,,,0.00,0.00,VWS V14.01,2013-03-10 08:30:00,
2013-03-10 04:31:00,33.1,31.0,30.36,NW,305,4.0,4.0,92,0.00,,---,0.00,0.00,VWS V14.01,2013-03-10 08:31:00,
2013-03-10 04:36:00,33.2,31.1,30.36,NW,323,3.0,6.0,92,0.00,,---,0.00,0.00,VWS V14.01,2013-03-10 08:36:00,
2013-03-10 04:41:00,33.1,31.0,30.36,NNW,338,6.0,8.0,92,0.00,,---,0.00,0.00,VWS V14.01,2013-03-10 08:41:00,
2013-03-10 04:45:00,33.1,31.0,30.35,NNW,333,2.0,7.0,92,0.00,,,0.00,0.00,VWS V14.01,2013-03-10 08:45:00,
2013-03-10 04:46:00,33.2,31.1,30.36,NNW,342,8.0,8.0,92,0.00,,---,0.00,0.00,VWS V14.01,2013-03-10 08:46:00,
2013-03-10 04:51:00,33.3,31.2,30.36,NNW,340,5.0,8.0,92,0.00,,---,0.00,0.00,VWS V14.01,2013-03-10 08:51:00,
2013-03-10 04:56:00,33.6,31.5,30.36,North,355,5.0,9.0,92,0.00,,---,0.00,0.00,VWS V14.01,2013-03-10 08:56:00,
2013-03-10 05:00:00,33.6,31.5,30.35,NW,310,3.0,6.0,92,0.00,,,0.00,0.00,VWS V14.01,2013-03-10 09:00:00,
2013-03-10 05:01:00,34.0,31.6,30.36,NNE,13,5.0,9.0,91,0.00,,---,0.00,0.00,VWS V14.01,2013-03-10 09:01:00,
2013-03-10 05:06:00,34.3,31.7,30.36,NNW,339,8.0,8.0,90,0.00,,---,0.00,0.00,VWS V14.01,2013-03-10 09:06:00,
2013-03-10 05:11:00,34.4,31.8,30.36,NNE,17,4.0,11.0,90,0.00,,---,0.00,0.00,VWS V14.01,2013-03-10 09:11:00,
2013-03-10 05:15:00,33.5,31.2,30.35,NW,320,4.0,6.0,91,0.00,,,0.00,0.00,VWS V14.01,2013-03-10 09:15:00,
2013-03-10 05:16:00,34.4,31.5,30.36,North,355,5.0,5.0,89,0.00,,---,0.00,0.00,VWS V14.01,2013-03-10 09:16:00,
2013-03-10 05:21:00,34.5,31.6,30.37,NNW,346,7.0,11.0,89,0.00,,---,0.00,0.00,VWS V14.01,2013-03-10 09:21:00,
2013-03-10 05:26:00,34.5,31.6,30.37,NNW,344,3.0,11.0,89,0.00,,---,0.00,0.00,VWS V14.01,2013-03-10 09:26:00,
2013-03-10 05:30:00,33.2,31.1,30.36,NNW,328,3.0,8.0,92,0.00,,,0.00,0.00,VWS V14.01,2013-03-10 09:30:00,
2013-03-10 05:31:00,34.5,31.6,30.37,North,355,6.0,11.0,89,0.00,,---,0.00,0.00,VWS V14.01,2013-03-10 09:31:00,
2013-03-10 05:36:00,34.6,31.7,30.37,NNE,14,7.0,9.0,89,0.00,,---,0.00,0.00,VWS V14.01,2013-03-10 09:36:00,
2013-03-10 05:41:00,35.1,31.9,30.37,North,350,4.0,13.0,88,0.00,,---,0.00,0.00,VWS V14.01,2013-03-10 09:41:00,
2013-03-10 05:45:00,33.2,31.1,30.36,NNW,342,8.0,8.0,92,0.00,,,0.00,0.00,VWS V14.01,2013-03-10 09:45:00,
2013-03-10 05:46:00,35.2,32.0,30.37,North,355,8.0,13.0,88,0.00,,---,0.00,0.00,VWS V14.01,2013-03-10 09:46:00,
2013-03-10 05:51:00,35.5,32.0,30.37,NNW,348,4.0,9.0,87,0.00,,---,0.00,0.00,VWS V14.01,2013-03-10 09:51:00,
2013-03-10 05:56:00,35.7,31.9,30.37,North,5,7.0,9.0,86,0.00,,---,0.00,0.00,VWS V14.01,2013-03-10 09:56:00,
2013-03-10 06:00:00,34.0,31.6,30.36,North,360,6.0,9.0,91,0.00,,,0.00,0.00,VWS V14.01,2013-03-10 10:00:00,
2013-03-10 06:01:00,35.8,32.0,30.37,North,5,1.0,9.0,86,0.00,,---,0.00,0.00,VWS V14.01,2013-03-10 10:01:00,
2013-03-10 06:06:00,35.9,32.1,30.37,North,5,11.0,12.0,86,0.00,,---,0.00,0.00,VWS V14.01,2013-03-10 10:06:00,
2013-03-10 06:11:00,36.4,32.3,30.38,NNW,344,5.0,12.0,85,0.00,,---,0.00,0.00,VWS V14.01,2013-03-10 10:11:00,
2013-03-10 06:16:00,36.7,32.0,30.37,NE,34,4.0,12.0,83,0.00,,---,0.00,0.00,VWS V14.01,2013-03-10 10:16:00,
2013-03-10 06:21:00,36.8,32.1,30.37,NNE,19,6.0,16.0,83,0.00,,---,0.00,0.00,VWS V14.01,2013-03-10 10:21:00,
2013-03-10 06:26:00,36.8,31.8,30.37,NE,44,10.0,16.0,82,0.00,,---,0.00,0.00,VWS V14.01,2013-03-10 10:26:00,
2013-03-10 06:30:00,34.5,31.6,30.37,North,355,6.0,11.0,89,0.00,,,0.00,0.00,VWS V14.01,2013-03-10 10:30:00,
2013-03-10 06:31:00,36.9,31.9,30.37,NE,37,12.0,13.0,82,0.00,,---,0.00,0.00,VWS V14.01,2013-03-10 10:31:00,
2013-03-10 06:36:00,36.9,31.9,30.37,North,360,7.0,14.0,82,0.00,,---,0.00,0.00,VWS V14.01,2013-03-10 10:36:00,
2013-03-10 06:41:00,36.9,31.9,30.37,NE,41,5.0,14.0,82,0.00,,---,0.00,0.00,VWS V14.01,2013-03-10 10:41:00,
2013-03-10 06:45:00,35.2,32.0,30.37,North,355,8.0,13.0,88,0.00,,,0.00,0.00,VWS V14.01,2013-03-10 10:45:00,
2013-03-10 06:46:00,36.8,32.1,30.37,North,355,9.0,14.0,83,0.00,,---,0.00,0.00,VWS V14.01,2013-03-10 10:46:00,
2013-03-10 06:51:00,36.9,31.9,30.38,NNE,33,5.0,16.0,82,0.00,,---,0.00,0.00,VWS V14.01,2013-03-10 10:51:00,
2013-03-10 06:56:00,37.0,32.0,30.37,NNE,17,6.0,16.0,82,0.00,,---,0.00,0.00,VWS V14.01,2013-03-10 10:56:00,
2013-03-10 07:00:00,35.8,32.0,30.37,North,5,1.0,9.0,86,0.00,,,0.00,0.00,VWS V14.01,2013-03-10 11:00:00,
2013-03-10 07:01:00,36.9,31.9,30.38,NNE,27,5.0,6.0,82,0.00,,---,0.00,0.00,VWS V14.01,2013-03-10 11:01:00,
2013-03-10 07:06:00,37.0,32.0,30.38,NNE,13,8.0,14.0,82,0.00,,---,0.00,5.00,VWS V14.01,2013-03-10 11:06:00,
2013-03-10 07:11:00,37.0,32.3,30.38,NE,36,6.0,14.0,83,0.00,,---,0.00,7.00,VWS V14.01,2013-03-10 11:11:00,
2013-03-10 07:15:00,36.7,32.0,30.37,NE,34,4.0,12.0,83,0.00,,,0.00,0.00,VWS V14.01,2013-03-10 11:15:00,
2013-03-10 07:16:00,37.0,32.6,30.38,NE,45,11.0,11.0,84,0.00,,---,0.00,11.00,VWS V14.01,2013-03-10 11:16:00,
2013-03-10 07:21:00,37.0,32.0,30.37,NE,46,10.0,13.0,82,0.00,,---,0.00,14.00,VWS V14.01,2013-03-10 11:21:00,
2013-03-10 07:26:00,37.0,32.0,30.37,North,360,6.0,15.0,82,0.00,,---,0.00,23.00,VWS V14.01,2013-03-10 11:26:00,
2013-03-10 07:31:00,37.0,32.0,30.37,NE,40,13.0,13.0,82,0.00,,---,0.00,28.00,VWS V14.01,2013-03-10 11:31:00,
2013-03-10 07:36:00,37.0,32.0,30.38,NNE,17,6.0,14.0,82,0.00,,---,0.00,32.00,VWS V14.01,2013-03-10 11:36:00,
2013-03-10 07:41:00,37.0,32.0,30.38,NNE,13,11.0,14.0,82,0.00,,---,0.00,40.00,VWS V14.01,2013-03-10 11:41:00,
2013-03-10 07:46:00,37.0,32.0,30.38,NNE,32,7.0,8.0,82,0.00,,---,0.00,46.00,VWS V14.01,2013-03-10 11:46:00,
2013-03-10 07:51:00,37.0,32.0,30.38,NNE,17,8.0,10.0,82,0.00,,---,0.00,51.00,VWS V14.01,2013-03-10 11:51:00,
2013-03-10 07:56:00,37.0,31.7,30.38,NE,54,13.0,15.0,81,0.00,,---,0.00,58.00,VWS V14.01,2013-03-10 11:56:00,
2013-03-10 08:01:00,37.0,32.0,30.39,NE,37,7.0,16.0,82,0.00,,---,0.00,62.00,VWS V14.01,2013-03-10 12:01:00,
2013-03-10 08:06:00,37.0,32.0,30.39,NNE,29,7.0,17.0,82,0.00,,---,0.00,70.00,VWS V14.01,2013-03-10 12:06:00,
2013-03-10 08:11:00,37.0,31.7,30.39,ENE,62,8.0,17.0,81,0.00,,---,0.00,86.00,VWS V14.01,2013-03-10 12:11:00,
2013-03-10 08:16:00,36.9,31.6,30.39,NE,48,5.0,10.0,81,0.00,,---,0.00,98.00,VWS V14.01,2013-03-10 12:16:00,
2013-03-10 08:21:00,36.8,31.5,30.39,NNE,30,14.0,16.0,81,0.00,,---,0.00,86.00,VWS V14.01,2013-03-10 12:21:00,
2013-03-10 08:26:00,36.7,31.4,30.39,NE,34,11.0,18.0,81,0.00,,---,0.00,91.00,VWS V14.01,2013-03-10 12:26:00,
2013-03-10 08:31:00,36.6,31.3,30.40,NNE,32,7.0,10.0,81,0.00,,---,0.00,91.00,VWS V14.01,2013-03-10 12:31:00,
2013-03-10 08:36:00,36.6,31.3,30.40,NE,48,6.0,14.0,81,0.00,,---,0.00,98.00,VWS V14.01,2013-03-10 12:36:00,
2013-03-10 08:41:00,36.6,31.3,30.39,NNE,26,11.0,18.0,81,0.00,,---,0.00,102.00,VWS V14.01,2013-03-10 12:41:00,
2013-03-10 08:45:00,37.0,32.0,30.38,NE,48,8.0,14.0,82,0.00,,,0.00,46.00,VWS V14.01,2013-03-10 12:45:00,
2013-03-10 08:46:00,36.7,31.7,30.39,NNE,26,9.0,9.0,82,0.00,,---,0.00,104.00,VWS V14.01,2013-03-10 12:46:00,
2013-03-10 08:51:00,36.7,31.7,30.40,North,5,9.0,13.0,82,0.00,,---,0.00,113.00,VWS V14.01,2013-03-10 12:51:00,
2013-03-10 08:56:00,36.8,31.8,30.40,NE,36,6.0,13.0,82,0.00,,---,0.00,121.00,VWS V14.01,2013-03-10 12:56:00,
2013-03-10 09:00:00,37.0,32.0,30.39,NE,37,7.0,16.0,82,0.00,,,0.00,62.00,VWS V14.01,2013-03-10 13:00:00,
2013-03-10 09:01:00,36.8,31.8,30.40,North,5,4.0,9.0,82,0.00,,---,0.00,125.00,VWS V14.01,2013-03-10 13:01:00,
2013-03-10 09:06:00,36.9,31.9,30.40,NNE,22,10.0,13.0,82,0.00,,---,0.00,142.00,VWS V14.01,2013-03-10 13:06:00,
2013-03-10 09:11:00,37.0,32.0,30.40,NNE,24,8.0,13.0,82,0.00,,---,0.00,146.00,VWS V14.01,2013-03-10 13:11:00,
2013-03-10 09:16:00,37.0,32.0,30.40,NE,44,6.0,6.0,82,0.00,,---,0.00,153.00,VWS V14.01,2013-03-10 13:16:00,
2013-03-10 09:21:00,37.0,31.7,30.40,North,5,10.0,13.0,81,0.00,,---,0.00,148.00,VWS V14.01,2013-03-10 13:21:00,
2013-03-10 09:26:00,36.9,31.3,30.41,NE,46,14.0,16.0,80,0.00,,---,0.00,162.00,VWS V14.01,2013-03-10 13:26:00,
2013-03-10 09:30:00,36.6,31.3,30.40,NE,54,10.0,18.0,81,0.00,,,0.00,91.00,VWS V14.01,2013-03-10 13:30:00,
2013-03-10 09:31:00,36.8,31.2,30.41,NNE,27,10.0,10.0,80,0.00,,---,0.00,169.00,VWS V14.01,2013-03-10 13:31:00,
2013-03-10 09:36:00,36.8,31.5,30.41,NNE,31,9.0,14.0,81,0.00,,---,0.00,171.00,VWS V14.01,2013-03-10 13:36:00,
2013-03-10 09:41:00,37.0,31.7,30.41,NNE,30,11.0,14.0,81,0.00,,---,0.00,181.00,VWS V14.01,2013-03-10 13:41:00,
2013-03-10 09:45:00,36.7,31.7,30.39,NNE,15,9.0,18.0,82,0.00,,,0.00,104.00,VWS V14.01,2013-03-10 13:45:00,
2013-03-10 09:46:00,37.0,31.4,30.41,NNE,16,8.0,8.0,80,0.00,,---,0.00,197.00,VWS V14.01,2013-03-10 13:46:00,
2013-03-10 09:51:00,37.1,31.5,30.40,NE,50,8.0,13.0,80,0.00,,---,0.00,204.00,VWS V14.01,2013-03-10 13:51:00,
2013-03-10 09:56:00,37.1,31.5,30.41,NNE,27,10.0,14.0,80,0.00,,---,0.00,214.00,VWS V14.01,2013-03-10 13:56:00,
2013-03-10 10:00:00,36.8,31.8,30.40,NNE,24,9.0,14.0,82,0.00,,,0.00,123.00,VWS V14.01,2013-03-10 14:00:00,
2013-03-10 10:01:00,37.3,31.7,30.41,NNE,15,7.0,7.0,80,0.00,,---,0.00,223.00,VWS V14.01,2013-03-10 14:01:00,
2013-03-10 10:06:00,37.4,31.8,30.40,NNE,13,10.0,14.0,80,0.00,,---,0.00,239.00,VWS V14.01,2013-03-10 14:06:00,
2013-03-10 10:11:00,37.5,31.9,30.40,NE,40,10.0,14.0,80,0.00,,---,0.00,258.00,VWS V14.01,2013-03-10 14:11:00,
2013-03-10 10:16:00,37.7,32.4,30.41,NNE,13,11.0,11.0,81,0.00,,---,0.00,230.00,VWS V14.01,2013-03-10 14:16:00,
2013-03-10 10:21:00,37.7,31.8,30.41,NNE,13,4.0,17.0,79,0.00,,---,0.00,255.00,VWS V14.01,2013-03-10 14:21:00,
2013-03-10 10:26:00,37.8,32.2,30.41,NNE,12,7.0,17.0,80,0.00,,---,0.00,267.00,VWS V14.01,2013-03-10 14:26:00,
2013-03-10 10:30:00,36.8,31.2,30.41,NNE,30,8.0,16.0,80,0.00,,,0.00,158.00,VWS V14.01,2013-03-10 14:30:00,
2013-03-10 10:31:00,38.1,32.5,30.41,NNE,32,5.0,8.0,80,0.00,,---,0.00,285.00,VWS V14.01,2013-03-10 14:31:00,
2013-03-10 10:36:00,38.2,32.6,30.41,NE,35,10.0,13.0,80,0.00,,---,0.00,290.00,VWS V14.01,2013-03-10 14:36:00,
2013-03-10 10:41:00,38.2,32.3,30.41,NE,43,11.0,14.0,79,0.00,,---,0.00,269.00,VWS V14.01,2013-03-10 14:41:00,
2013-03-10 10:45:00,37.0,31.4,30.41,North,360,5.0,17.0,80,0.00,,,0.00,197.00,VWS V14.01,2013-03-10 14:45:00,
2013-03-10 10:46:00,38.1,32.2,30.41,NNE,23,7.0,7.0,79,0.00,,---,0.00,274.00,VWS V14.01,2013-03-10 14:46:00,
2013-03-10 10:51:00,38.1,32.2,30.42,NNE,13,6.0,11.0,79,0.00,,---,0.00,278.00,VWS V14.01,2013-03-10 14:51:00,
2013-03-10 10:56:00,38.4,32.5,30.42,North,355,2.0,11.0,79,0.00,,---,0.00,311.00,VWS V14.01,2013-03-10 14:56:00,
2013-03-10 11:01:00,38.8,32.9,30.42,North,5,7.0,8.0,79,0.00,,---,0.00,301.00,VWS V14.01,2013-03-10 15:01:00,
2013-03-10 11:06:00,38.6,32.3,30.42,NE,39,7.0,13.0,78,0.00,,---,0.00,290.00,VWS V14.01,2013-03-10 15:06:00,
2013-03-10 11:11:00,38.5,32.2,30.42,NE,53,7.0,13.0,78,0.00,,---,0.00,336.00,VWS V14.01,2013-03-10 15:11:00,
2013-03-10 11:15:00,37.6,32.0,30.41,NNE,29,4.0,14.0,80,0.00,,,0.00,234.00,VWS V14.01,2013-03-10 15:15:00,
2013-03-10 11:16:00,38.5,32.2,30.42,NNE,27,7.0,10.0,78,0.00,,---,0.00,346.00,VWS V14.01,2013-03-10 15:16:00,
2013-03-10 11:22:00,38.8,32.5,30.42,NE,49,6.0,11.0,78,0.00,,---,0.00,323.00,VWS V14.01,2013-03-10 15:22:00,
2013-03-10 11:27:00,39.0,32.7,30.42,NE,38,9.0,11.0,78,0.00,,---,0.00,336.00,VWS V14.01,2013-03-10 15:27:00,
2013-03-10 11:30:00,38.0,32.4,30.41,NNE,25,8.0,17.0,80,0.00,,,0.00,285.00,VWS V14.01,2013-03-10 15:30:00,
2013-03-10 11:32:00,38.9,33.0,30.42,North,5,3.0,5.0,79,0.00,,---,0.00,480.00,VWS V14.01,2013-03-10 15:32:00,
2013-03-10 11:37:00,39.2,32.9,30.42,NE,34,7.0,11.0,78,0.00,,---,0.00,422.00,VWS V14.01,2013-03-10 15:37:00,
2013-03-10 11:42:00,39.3,33.0,30.42,ENE,66,8.0,12.0,78,0.00,,---,0.00,396.00,VWS V14.01,2013-03-10 15:42:00,
2013-03-10 11:45:00,38.0,32.1,30.42,NNE,24,6.0,14.0,79,0.00,,,0.00,267.00,VWS V14.01,2013-03-10 15:45:00,
2013-03-10 11:47:00,39.0,33.0,30.41,NE,44,8.0,12.0,79,0.00,,---,0.00,388.00,VWS V14.01,2013-03-10 15:47:00,
2013-03-10 11:52:00,39.0,33.0,30.41,ENE,74,6.0,14.0,79,0.00,,---,0.00,392.00,VWS V14.01,2013-03-10 15:52:00,
2013-03-10 11:57:00,39.3,33.3,30.41,NE,56,3.0,14.0,79,0.00,,---,0.00,397.00,VWS V14.01,2013-03-10 15:57:00,
2013-03-10 12:00:00,38.8,32.9,30.42,NE,37,8.0,11.0,79,0.00,,,0.00,311.00,VWS V14.01,2013-03-10 16:00:00,
2013-03-10 12:02:00,39.6,33.6,30.40,ENE,66,8.0,11.0,79,0.00,,---,0.00,462.00,VWS V14.01,2013-03-10 16:02:00,
2013-03-10 12:07:00,39.6,33.3,30.41,NE,52,7.0,15.0,78,0.00,,---,0.00,355.00,VWS V14.01,2013-03-10 16:07:00,
2013-03-10 12:12:00,39.6,33.0,30.41,ENE,63,10.0,15.0,77,0.00,,---,0.00,369.00,VWS V14.01,2013-03-10 16:12:00,
2013-03-10 12:17:00,39.4,33.1,30.40,ENE,64,7.0,10.0,78,0.00,,---,0.00,353.00,VWS V14.01,2013-03-10 16:17:00,
2013-03-10 12:22:00,39.5,33.5,30.40,NNE,28,7.0,12.0,79,0.00,,---,0.00,241.00,VWS V14.01,2013-03-10 16:22:00,
2013-03-10 12:27:00,39.3,33.0,30.40,NE,55,12.0,12.0,78,0.00,,---,0.00,202.00,VWS V14.01,2013-03-10 16:27:00,
2013-03-10 12:30:00,38.8,32.5,30.42,NE,55,4.0,11.0,78,0.00,,,0.00,480.00,VWS V14.01,2013-03-10 16:30:00,
2013-03-10 12:32:00,39.6,33.0,30.40,NE,44,5.0,9.0,77,0.00,,---,0.00,536.00,VWS V14.01,2013-03-10 16:32:00,
2013-03-10 12:37:00,40.1,33.5,30.40,North,355,4.0,9.0,77,0.00,,---,0.00,517.00,VWS V14.01,2013-03-10 16:37:00,
2013-03-10 12:42:00,40.2,33.2,30.40,ENE,57,6.0,12.0,76,0.00,,---,0.00,490.00,VWS V14.01,2013-03-10 16:42:00,
2013-03-10 12:47:00,40.5,33.5,30.40,ENE,69,12.0,14.0,76,0.00,,---,0.00,490.00,VWS V14.01,2013-03-10 16:47:00,
2013-03-10 12:52:00,40.0,33.1,30.40,NE,42,10.0,14.0,76,0.00,,---,0.00,554.00,VWS V14.01,2013-03-10 16:52:00,
2013-03-10 12:57:00,39.7,32.8,30.40,NE,53,14.0,15.0,76,0.00,,---,0.00,531.00,VWS V14.01,2013-03-10 16:57:00,
2013-03-10 13:00:00,39.6,33.6,30.40,ENE,60,7.0,14.0,79,0.00,,,0.00,508.00,VWS V14.01,2013-03-10 17:00:00,
2013-03-10 13:02:00,39.7,33.4,30.40,East,84,5.0,13.0,78,0.00,,---,0.00,686.00,VWS V14.01,2013-03-10 17:02:00,
2013-03-10 13:07:00,40.2,33.6,30.40,ENE,57,12.0,13.0,77,0.00,,---,0.00,585.00,VWS V14.01,2013-03-10 17:07:00,
2013-03-10 13:12:00,40.0,33.4,30.39,ENE,68,10.0,14.0,77,0.00,,---,0.00,605.00,VWS V14.01,2013-03-10 17:12:00,
2013-03-10 13:15:00,39.4,32.8,30.40,NE,55,6.0,15.0,77,0.00,,,0.00,297.00,VWS V14.01,2013-03-10 17:15:00,
2013-03-10 13:17:00,40.0,33.1,30.39,ENE,57,11.0,18.0,76,0.00,,---,0.00,833.00,VWS V14.01,2013-03-10 17:17:00,
2013-03-10 13:22:00,40.1,33.2,30.39,ENE,74,11.0,18.0,76,0.00,,---,0.00,780.00,VWS V14.01,2013-03-10 17:22:00,
2013-03-10 13:27:00,40.4,33.5,30.39,NE,47,8.0,18.0,76,0.00,,---,0.00,775.00,VWS V14.01,2013-03-10 17:27:00,
2013-03-10 13:30:00,39.5,32.9,30.40,NE,43,8.0,12.0,77,0.00,,,0.00,520.00,VWS V14.01,2013-03-10 17:30:00,
2013-03-10 13:32:00,40.4,32.8,30.39,NE,55,12.0,14.0,74,0.00,,---,0.00,752.00,VWS V14.01,2013-03-10 17:32:00,
2013-03-10 13:37:00,40.4,33.5,30.39,NE,53,4.0,14.0,76,0.00,,---,0.00,766.00,VWS V14.01,2013-03-10 17:37:00,
2013-03-10 13:42:00,40.6,33.3,30.38,NE,38,9.0,15.0,75,0.00,,---,0.00,772.00,VWS V14.01,2013-03-10 17:42:00,
2013-03-10 13:45:00,40.5,33.9,30.40,ENE,69,12.0,12.0,77,0.00,,,0.00,490.00,VWS V14.01,2013-03-10 17:45:00,
2013-03-10 13:47:00,40.7,33.4,30.38,NE,49,11.0,11.0,75,0.00,,---,0.00,731.00,VWS V14.01,2013-03-10 17:47:00,
2013-03-10 13:52:00,40.6,33.0,30.38,NE,51,6.0,13.0,74,0.00,,---,0.00,765.00,VWS V14.01,2013-03-10 17:52:00,
2013-03-10 13:57:00,40.7,33.1,30.38,North,355,10.0,13.0,74,0.00,,---,0.00,728.00,VWS V14.01,2013-03-10 17:57:00,
2013-03-10 14:02:00,40.4,33.1,30.38,NNE,30,10.0,12.0,75,0.00,,---,0.00,745.00,VWS V14.01,2013-03-10 18:02:00,
2013-03-10 14:07:00,40.3,33.0,30.38,NNE,30,5.0,13.0,75,0.00,,---,0.00,742.00,VWS V14.01,2013-03-10 18:07:00,
2013-03-10 14:12:00,40.5,33.2,30.37,ENE,57,8.0,13.0,75,0.00,,---,0.00,728.00,VWS V14.01,2013-03-10 18:12:00,
2013-03-10 14:17:00,40.7,33.1,30.37,NNE,26,9.0,14.0,74,0.00,,---,0.00,707.00,VWS V14.01,2013-03-10 18:17:00,
2013-03-10 14:22:00,40.9,33.3,30.37,North,5,8.0,14.0,74,0.00,,---,0.00,691.00,VWS V14.01,2013-03-10 18:22:00,
2013-03-10 14:27:00,40.6,32.6,30.37,North,9,8.0,14.0,73,0.00,,---,0.00,701.00,VWS V14.01,2013-03-10 18:27:00,
2013-03-10 14:32:00,40.8,33.5,30.37,ENE,62,10.0,10.0,75,0.00,,---,0.00,694.00,VWS V14.01,2013-03-10 18:32:00,
2013-03-10 14:37:00,41.0,33.4,30.37,NE,39,6.0,13.0,74,0.00,,---,0.00,675.00,VWS V14.01,2013-03-10 18:37:00,
2013-03-10 14:42:00,41.1,32.4,30.37,NNE,13,11.0,13.0,71,0.00,,---,0.00,677.00,VWS V14.01,2013-03-10 18:42:00,
2013-03-10 14:45:00,40.7,33.4,30.38,NNE,20,8.0,15.0,75,0.00,,,0.00,733.00,VWS V14.01,2013-03-10 18:45:00,
2013-03-10 14:47:00,40.5,32.5,30.37,NE,35,7.0,12.0,73,0.00,,---,0.00,657.00,VWS V14.01,2013-03-10 18:47:00,
2013-03-10 14:52:00,40.6,33.0,30.37,NE,38,6.0,12.0,74,0.00,,---,0.00,650.00,VWS V14.01,2013-03-10 18:52:00,
2013-03-10 14:57:00,40.8,32.5,30.37,NE,40,4.0,12.0,72,0.00,,---,0.00,650.00,VWS V14.01,2013-03-10 18:57:00,
2013-03-10 15:02:00,41.1,32.8,30.37,NE,37,6.0,9.0,72,0.00,,---,0.00,631.00,VWS V14.01,2013-03-10 19:02:00,
2013-03-10 15:07:00,41.3,33.0,30.37,NNE,30,8.0,10.0,72,0.00,,---,0.00,622.00,VWS V14.01,2013-03-10 19:07:00,
2013-03-10 15:12:00,41.4,33.4,30.37,NE,49,6.0,10.0,73,0.00,,---,0.00,605.00,VWS V14.01,2013-03-10 19:12:00,
2013-03-10 15:15:00,40.6,33.0,30.37,NE,51,14.0,14.0,74,0.00,,,0.00,710.00,VWS V14.01,2013-03-10 19:15:00,
2013-03-10 15:17:00,41.2,32.9,30.36,NNE,22,10.0,11.0,72,0.00,,---,0.00,591.00,VWS V14.01,2013-03-10 19:17:00,
2013-03-10 15:22:00,41.0,33.0,30.36,NE,36,8.0,11.0,73,0.00,,---,0.00,577.00,VWS V14.01,2013-03-10 19:22:00,
2013-03-10 15:27:00,41.0,33.0,30.36,NNE,24,8.0,11.0,73,0.00,,---,0.00,557.00,VWS V14.01,2013-03-10 19:27:00,
2013-03-10 15:30:00,40.6,33.0,30.37,East,96,7.0,14.0,74,0.00,,,0.00,694.00,VWS V14.01,2013-03-10 19:30:00,
2013-03-10 15:32:00,41.1,33.1,30.36,NNE,22,10.0,11.0,73,0.00,,---,0.00,561.00,VWS V14.01,2013-03-10 19:32:00,
2013-03-10 15:37:00,41.1,33.8,30.36,NE,38,5.0,11.0,75,0.00,,---,0.00,550.00,VWS V14.01,2013-03-10 19:37:00,
2013-03-10 15:42:00,41.5,34.2,30.36,NNE,25,9.0,11.0,75,0.00,,---,0.00,538.00,VWS V14.01,2013-03-10 19:42:00,
2013-03-10 15:45:00,40.7,32.7,30.37,NNE,15,9.0,13.0,73,0.00,,,0.00,659.00,VWS V14.01,2013-03-10 19:45:00,
2013-03-10 15:47:00,41.4,33.4,30.35,NNE,27,7.0,9.0,73,0.00,,---,0.00,526.00,VWS V14.01,2013-03-10 19:47:00,
2013-03-10 15:52:00,41.2,33.2,30.35,NE,42,9.0,12.0,73,0.00,,---,0.00,510.00,VWS V14.01,2013-03-10 19:52:00,
2013-03-10 15:57:00,41.5,33.8,30.36,NNE,17,8.0,12.0,74,0.00,,---,0.00,496.00,VWS V14.01,2013-03-10 19:57:00,
2013-03-10 16:02:00,41.2,33.2,30.36,ENE,57,5.0,10.0,73,0.00,,---,0.00,482.00,VWS V14.01,2013-03-10 20:02:00,
2013-03-10 16:07:00,41.2,33.2,30.36,NNE,20,8.0,11.0,73,0.00,,---,0.00,462.00,VWS V14.01,2013-03-10 20:07:00,
2013-03-10 16:12:00,41.3,33.3,30.36,NNE,32,5.0,11.0,73,0.00,,---,0.00,450.00,VWS V14.01,2013-03-10 20:12:00,
2013-03-10 16:17:00,41.4,33.8,30.36,NE,52,8.0,8.0,74,0.00,,---,0.00,434.00,VWS V14.01,2013-03-10 20:17:00,
2013-03-10 16:22:00,41.6,33.6,30.36,NE,39,8.0,11.0,73,0.00,,---,0.00,415.00,VWS V14.01,2013-03-10 20:22:00,
2013-03-10 16:27:00,41.5,33.5,30.35,NE,47,10.0,11.0,73,0.00,,---,0.00,399.00,VWS V14.01,2013-03-10 20:27:00,
2013-03-10 16:30:00,41.1,33.1,30.36,North,360,8.0,11.0,73,0.00,,,0.00,563.00,VWS V14.01,2013-03-10 20:30:00,
2013-03-10 16:32:00,41.4,33.4,30.35,ENE,65,6.0,12.0,73,0.00,,---,0.00,390.00,VWS V14.01,2013-03-10 20:32:00,
2013-03-10 16:37:00,41.5,34.2,30.35,ENE,61,6.0,12.0,75,0.00,,---,0.00,373.00,VWS V14.01,2013-03-10 20:37:00,
2013-03-10 16:43:00,41.4,33.8,30.35,ENE,59,5.0,12.0,74,0.00,,---,0.00,353.00,VWS V14.01,2013-03-10 20:43:00,
2013-03-10 16:45:00,41.5,33.5,30.35,NNE,21,9.0,12.0,73,0.00,,,0.00,526.00,VWS V14.01,2013-03-10 20:45:00,
2013-03-10 16:48:00,41.4,33.8,30.36,NE,43,7.0,7.0,74,0.00,,---,0.00,334.00,VWS V14.01,2013-03-10 20:48:00,
2013-03-10 16:53:00,41.4,33.8,30.35,NE,42,7.0,10.0,74,0.00,,---,0.00,316.00,VWS V14.01,2013-03-10 20:53:00,
2013-03-10 16:58:00,41.2,34.2,30.35,East,96,8.0,12.0,76,0.00,,---,0.00,306.00,VWS V14.01,2013-03-10 20:58:00,
2013-03-10 17:03:00,40.6,34.6,30.35,ESE,111,8.0,11.0,79,0.00,,---,0.00,288.00,VWS V14.01,2013-03-10 21:03:00,
2013-03-10 17:08:00,40.7,34.7,30.36,ESE,111,8.0,11.0,79,0.00,,---,0.00,269.00,VWS V14.01,2013-03-10 21:08:00,
2013-03-10 17:13:00,40.6,34.0,30.36,East,92,8.0,12.0,77,0.00,,---,0.00,253.00,VWS V14.01,2013-03-10 21:13:00,
2013-03-10 17:15:00,41.3,33.7,30.36,NE,45,6.0,11.0,74,0.00,,,0.00,443.00,VWS V14.01,2013-03-10 21:15:00,
2013-03-10 17:18:00,40.4,34.1,30.36,East,88,5.0,7.0,78,0.00,,---,0.00,232.00,VWS V14.01,2013-03-10 21:18:00,
2013-03-10 17:23:00,40.2,33.6,30.35,East,90,7.0,11.0,77,0.00,,---,0.00,202.00,VWS V14.01,2013-03-10 21:23:00,
2013-03-10 17:28:00,39.8,33.8,30.35,East,96,7.0,11.0,79,0.00,,---,0.00,179.00,VWS V14.01,2013-03-10 21:28:00,
2013-03-10 17:30:00,41.4,33.8,30.35,NE,39,8.0,11.0,74,0.00,,,0.00,394.00,VWS V14.01,2013-03-10 21:30:00,
2013-03-10 17:33:00,39.5,34.2,30.35,East,100,7.0,11.0,81,0.00,,---,0.00,158.00,VWS V14.01,2013-03-10 21:33:00,
2013-03-10 17:38:00,39.1,34.4,30.36,East,92,8.0,11.0,83,0.00,,---,0.00,141.00,VWS V14.01,2013-03-10 21:38:00,
2013-03-10 17:43:00,39.1,34.4,30.36,East,96,9.0,11.0,83,0.00,,---,0.00,127.00,VWS V14.01,2013-03-10 21:43:00,
2013-03-10 17:45:00,41.4,34.1,30.36,NE,39,6.0,12.0,75,0.00,,,0.00,348.00,VWS V14.01,2013-03-10 21:45:00,
2013-03-10 17:48:00,38.8,34.4,30.35,East,99,7.0,11.0,84,0.00,,---,0.00,97.00,VWS V14.01,2013-03-10 21:48:00,
2013-03-10 17:53:00,38.8,34.4,30.35,ESE,102,9.0,12.0,84,0.00,,---,0.00,84.00,VWS V14.01,2013-03-10 21:53:00,
2013-03-10 17:58:00,38.8,34.4,30.35,ENE,78,11.0,13.0,84,0.00,,---,0.00,74.00,VWS V14.01,2013-03-10 21:58:00,
2013-03-10 18:03:00,38.6,34.2,30.35,East,94,11.0,12.0,84,0.00,,---,0.00,56.00,VWS V14.01,2013-03-10 22:03:00,
2013-03-10 18:08:00,38.4,34.3,30.36,East,101,11.0,12.0,85,0.00,,---,0.00,40.00,VWS V14.01,2013-03-10 22:08:00,
2013-03-10 18:13:00,38.3,34.2,30.36,East,100,13.0,13.0,85,0.00,,---,0.00,32.00,VWS V14.01,2013-03-10 22:13:00,
2013-03-10 18:15:00,40.5,33.9,30.36,East,90,7.0,12.0,77,0.00,,,0.00,239.00,VWS V14.01,2013-03-10 22:15:00,
2013-03-10 18:18:00,38.1,34.3,30.36,ESE,103,7.0,9.0,86,0.00,,---,0.00,26.00,VWS V14.01,2013-03-10 22:18:00,
2013-03-10 18:23:00,37.9,34.1,30.36,ESE,103,7.0,12.0,86,0.00,,---,0.00,23.00,VWS V14.01,2013-03-10 22:23:00,
2013-03-10 18:28:00,37.8,34.0,30.36,ESE,104,12.0,12.0,86,0.00,,---,0.00,16.00,VWS V14.01,2013-03-10 22:28:00,
2013-03-10 18:33:00,37.6,33.8,30.35,East,89,8.0,12.0,86,0.00,,---,0.00,11.00,VWS V14.01,2013-03-10 22:33:00,
2013-03-10 18:38:00,37.5,33.7,30.36,ESE,111,12.0,13.0,86,0.00,,---,0.00,7.00,VWS V14.01,2013-03-10 22:38:00,
2013-03-10 18:43:00,37.3,33.5,30.36,ESE,107,11.0,13.0,86,0.00,,---,0.00,5.00,VWS V14.01,2013-03-10 22:43:00,
2013-03-10 18:48:00,37.3,33.8,30.36,East,97,9.0,13.0,87,0.00,,---,0.00,0.00,VWS V14.01,2013-03-10 22:48:00,
2013-03-10 18:53:00,37.1,33.6,30.36,ESE,110,9.0,13.0,87,0.00,,---,0.00,0.00,VWS V14.01,2013-03-10 22:53:00,
2013-03-10 18:58:00,37.1,33.6,30.36,ESE,103,11.0,13.0,87,0.00,,---,0.00,0.00,VWS V14.01,2013-03-10 22:58:00,
2013-03-10 19:00:00,38.7,34.3,30.36,ESE,103,11.0,13.0,84,0.00,,,0.00,69.00,VWS V14.01,2013-03-10 23:00:00,
2013-03-10 19:03:00,37.1,33.6,30.37,East,95,6.0,11.0,87,0.00,,---,0.00,0.00,VWS V14.01,2013-03-10 23:03:00,
2013-03-10 19:08:00,37.1,33.6,30.37,East,101,7.0,11.0,87,0.00,,---,0.00,0.00,VWS V14.01,2013-03-10 23:08:00,
2013-03-10 19:13:00,37.0,33.5,30.37,ESE,114,8.0,12.0,87,0.00,,---,0.00,0.00,VWS V14.01,2013-03-10 23:13:00,
2013-03-10 19:15:00,38.1,34.0,30.35,ESE,104,7.0,13.0,85,0.00,,,0.00,28.00,VWS V14.01,2013-03-10 23:15:00,
2013-03-10 19:18:00,36.9,33.4,30.37,ESE,104,9.0,12.0,87,0.00,,---,0.00,0.00,VWS V14.01,2013-03-10 23:18:00,
2013-03-10 19:23:00,36.9,33.4,30.38,ESE,106,9.0,12.0,87,0.00,,---,0.00,0.00,VWS V14.01,2013-03-10 23:23:00,
2013-03-10 19:28:00,36.9,33.4,30.38,East,88,6.0,12.0,87,0.00,,---,0.00,0.00,VWS V14.01,2013-03-10 23:28:00,
2013-03-10 19:30:00,37.7,33.9,30.35,ESE,103,9.0,12.0,86,0.00,,,0.00,12.00,VWS V14.01,2013-03-10 23:30:00,
2013-03-10 19:33:00,36.8,33.3,30.38,East,101,8.0,11.0,87,0.00,,---,0.00,0.00,VWS V14.01,2013-03-10 23:33:00,
2013-03-10 19:38:00,36.7,33.2,30.38,ESE,111,8.0,12.0,87,0.00,,---,0.00,0.00,VWS V14.01,2013-03-10 23:38:00,
2013-03-10 19:43:00,36.7,33.2,30.38,East,101,8.0,12.0,87,0.00,,---,0.00,0.00,VWS V14.01,2013-03-10 23:43:00,
2013-03-10 19:45:00,37.3,33.8,30.36,ESE,103,12.0,13.0,87,0.00,,,0.00,0.00,VWS V14.01,2013-03-10 23:45:00,
2013-03-10 19:48:00,36.7,33.2,30.38,ESE,119,8.0,11.0,87,0.00,,---,0.00,0.00,VWS V14.01,2013-03-10 23:48:00,
2013-03-10 19:53:00,36.7,33.5,30.38,ESE,116,8.0,11.0,88,0.00,,---,0.00,0.00,VWS V14.01,2013-03-10 23:53:00,
2013-03-10 19:58:00,36.7,33.5,30.38,ESE,123,7.0,11.0,88,0.00,,---,0.00,0.00,VWS V14.01,2013-03-10 23:58:00,
2013-03-10 20:03:00,36.7,33.5,30.38,ESE,123,11.0,12.0,88,0.00,,---,0.00,0.00,VWS V14.01,2013-03-11 00:03:00,
2013-03-10 20:08:00,36.6,33.4,30.38,SE,125,9.0,12.0,88,0.00,,---,0.00,0.00,VWS V14.01,2013-03-11 00:08:00,
2013-03-10 20:13:00,36.7,33.5,30.39,SE,126,7.0,12.0,88,0.00,,---,0.00,0.00,VWS V14.01,2013-03-11 00:13:00,
2013-03-10 20:18:00,36.6,33.4,30.39,SE,140,9.0,10.0,88,0.00,,---,0.00,0.00,VWS V14.01,2013-03-11 00:18:00,
2013-03-10 20:23:00,36.6,33.4,30.39,SE,136,10.0,11.0,88,0.00,,---,0.00,0.00,VWS V14.01,2013-03-11 00:23:00,
2013-03-10 20:28:00,36.6,33.7,30.39,SE,142,8.0,11.0,89,0.00,,---,0.00,0.00,VWS V14.01,2013-03-11 00:28:00,
2013-03-10 20:33:00,36.6,33.7,30.39,SE,144,8.0,9.0,89,0.00,,---,0.00,0.00,VWS V14.01,2013-03-11 00:33:00,
2013-03-10 20:38:00,36.6,33.7,30.38,SSE,148,6.0,10.0,89,0.00,,---,0.00,0.00,VWS V14.01,2013-03-11 00:38:00,
2013-03-10 20:43:00,36.5,33.6,30.39,SE,145,9.0,11.0,89,0.00,,---,0.00,0.00,VWS V14.01,2013-03-11 00:43:00,
2013-03-10 20:48:00,36.5,33.6,30.39,SSE,152,5.0,10.0,89,0.00,,---,0.00,0.00,VWS V14.01,2013-03-11 00:48:00,
2013-03-10 20:53:00,36.5,33.6,30.39,SE,146,8.0,10.0,89,0.00,,---,0.00,0.00,VWS V14.01,2013-03-11 00:53:00,
2013-03-10 20:58:00,36.5,33.6,30.39,SSE,151,8.0,11.0,89,0.00,,---,0.00,0.00,VWS V14.01,2013-03-11 00:58:00,
2013-03-10 21:00:00,36.7,33.5,30.38,SE,127,6.0,11.0,88,0.00,,,0.00,0.00,VWS V14.01,2013-03-11 01:00:00,
2013-03-10 21:03:00,36.6,33.7,30.39,SSE,154,9.0,10.0,89,0.00,,---,0.00,0.00,VWS V14.01,2013-03-11 01:03:00,
2013-03-10 21:08:00,36.6,33.7,30.39,SSE,159,7.0,10.0,89,0.00,,---,0.00,0.00,VWS V14.01,2013-03-11 01:08:00,
2013-03-10 21:13:00,36.5,33.3,30.38,SSE,148,8.0,10.0,88,0.00,,---,0.00,0.00,VWS V14.01,2013-03-11 01:13:00,
2013-03-10 21:19:00,36.5,33.3,30.38,SSE,153,7.0,10.0,88,0.00,,---,0.00,0.00,VWS V14.01,2013-03-11 01:19:00,
2013-03-10 21:23:00,36.5,33.6,30.38,SE,132,8.0,10.0,89,0.00,,---,0.00,0.00,VWS V14.01,2013-03-11 01:23:00,
2013-03-10 21:29:00,36.5,33.3,30.38,SE,138,9.0,11.0,88,0.00,,---,0.00,0.00,VWS V14.01,2013-03-11 01:29:00,
2013-03-10 21:30:00,36.6,33.7,30.39,SE,145,8.0,11.0,89,0.00,,,0.00,0.00,VWS V14.01,2013-03-11 01:30:00,
2013-03-10 21:34:00,36.5,33.6,30.37,SE,131,8.0,12.0,89,0.00,,---,0.00,0.00,VWS V14.01,2013-03-11 01:34:00,
2013-03-10 21:39:00,36.5,33.6,30.37,SE,139,12.0,13.0,89,0.00,,---,0.00,0.00,VWS V14.01,2013-03-11 01:39:00,
2013-03-10 21:44:00,36.4,33.2,30.37,ESE,123,14.0,15.0,88,0.00,,---,0.00,0.00,VWS V14.01,2013-03-11 01:44:00,
2013-03-10 21:45:00,36.5,33.6,30.39,SE,145,10.0,11.0,89,0.00,,,0.00,0.00,VWS V14.01,2013-03-11 01:45:00,
2013-03-10 21:49:00,36.4,33.2,30.37,ESE,120,11.0,13.0,88,0.00,,---,0.00,0.00,VWS V14.01,2013-03-11 01:49:00,
2013-03-10 21:54:00,36.4,33.2,30.37,SE,128,12.0,14.0,88,0.00,,---,0.00,0.00,VWS V14.01,2013-03-11 01:54:00,
2013-03-10 21:59:00,36.4,33.2,30.37,SE,131,12.0,14.0,88,0.00,,---,0.00,0.00,VWS V14.01,2013-03-11 01:59:00,
2013-03-10 22:00:00,36.5,33.6,30.39,SSE,148,8.0,11.0,89,0.00,,,0.00,0.00,VWS V14.01,2013-03-11 02:00:00,
2013-03-10 22:04:00,36.4,32.9,30.37,SE,136,10.0,13.0,87,0.00,,---,0.00,0.00,VWS V14.01,2013-03-11 02:04:00,
2013-03-10 22:09:00,36.4,32.9,30.38,SE,138,8.0,13.0,87,0.00,,---,0.00,0.00,VWS V14.01,2013-03-11 02:09:00,
2013-03-10 22:14:00,36.4,33.2,30.37,SE,140,11.0,13.0,88,0.00,,---,0.00,0.00,VWS V14.01,2013-03-11 02:14:00,
2013-03-10 22:19:00,36.3,32.8,30.38,SSE,148,9.0,12.0,87,0.00,,---,0.00,0.00,VWS V14.01,2013-03-11 02:19:00,
2013-03-10 22:24:00,36.3,33.1,30.38,SE,132,8.0,12.0,88,0.00,,---,0.00,0.00,VWS V14.01,2013-03-11 02:24:00,
2013-03-10 22:29:00,36.3,32.8,30.38,SE,142,9.0,12.0,87,0.00,,---,0.00,0.00,VWS V14.01,2013-03-11 02:29:00,
2013-03-10 22:34:00,36.2,32.7,30.37,SE,144,10.0,11.0,87,0.00,,---,0.00,0.00,VWS V14.01,2013-03-11 02:34:00,
2013-03-10 22:39:00,36.2,32.7,30.38,SE,142,7.0,11.0,87,0.00,,---,0.00,0.00,VWS V14.01,2013-03-11 02:39:00,
2013-03-10 22:44:00,36.2,33.0,30.37,SE,136,7.0,11.0,88,0.00,,---,0.00,0.00,VWS V14.01,2013-03-11 02:44:00,
2013-03-10 22:49:00,36.2,33.0,30.37,SE,140,11.0,12.0,88,0.00,,---,0.00,0.00,VWS V14.01,2013-03-11 02:49:00,
2013-03-10 22:54:00,36.2,33.0,30.37,SE,126,12.0,12.0,88,0.00,,---,0.00,0.00,VWS V14.01,2013-03-11 02:54:00,
2013-03-10 22:59:00,36.2,33.0,30.37,SE,131,12.0,13.0,88,0.00,,---,0.00,0.00,VWS V14.01,2013-03-11 02:59:00,
2013-03-10 23:04:00,36.2,33.0,30.37,SE,144,11.0,13.0,88,0.00,,---,0.00,0.00,VWS V14.01,2013-03-11 03:04:00,
2013-03-10 23:09:00,36.2,33.0,30.37,SE,140,12.0,13.0,88,0.00,,---,0.00,0.00,VWS V14.01,2013-03-11 03:09:00,
2013-03-10 23:14:00,36.2,33.0,30.37,SSE,150,12.0,13.0,88,0.00,,---,0.00,0.00,VWS V14.01,2013-03-11 03:14:00,
2013-03-10 23:15:00,36.3,32.8,30.37,SE,140,10.0,13.0,87,0.00,,,0.00,0.00,VWS V14.01,2013-03-11 03:15:00,
2013-03-10 23:19:00,36.2,33.3,30.37,SE,144,10.0,11.0,89,0.00,,---,0.00,0.00,VWS V14.01,2013-03-11 03:19:00,
2013-03-10 23:24:00,36.2,33.0,30.37,SSE,148,10.0,11.0,88,0.00,,---,0.00,0.00,VWS V14.01,2013-03-11 03:24:00,
2013-03-10 23:29:00,36.2,33.0,30.36,SE,143,12.0,14.0,88,0.00,,---,0.00,0.00,VWS V14.01,2013-03-11 03:29:00,
2013-03-10 23:34:00,36.2,33.0,30.36,SE,126,9.0,13.0,88,0.00,,---,0.00,0.00,VWS V14.01,2013-03-11 03:34:00,
2013-03-10 23:39:00,36.1,33.2,30.37,SE,137,10.0,13.0,89,0.00,,---,0.00,0.00,VWS V14.01,2013-03-11 03:39:00,
2013-03-10 23:44:00,36.1,33.2,30.38,SE,146,9.0,13.0,89,0.00,,---,0.00,0.00,VWS V14.01,2013-03-11 03:44:00,
2013-03-10 23:49:00,36.0,32.8,30.37,SE,136,11.0,12.0,88,0.00,,---,0.00,0.00,VWS V14.01,2013-03-11 03:49:00,
2013-03-10 23:54:00,36.0,32.8,30.37,SE,146,5.0,12.0,88,0.00,,---,0.00,0.00,VWS V14.01,2013-03-11 03:54:00,
2013-03-10 23:59:00,36.0,33.1,30.37,SSE,148,8.0,12.0,89,0.00,,---,0.00,0.00,VWS V14.01,2013-03-11 03:59:00,